Time;durP1;ratioP1;P1;durP2;ratioP2;P2;SDS_P1;SDS_P2;PMS_P1;PMS_P2;Temp;Humidity;BMP_temperature;BMP_pressure;BME280_temperature;BME280_humidity;BME280_pressure;Samples;Min_cycle;Max_cycle;Signal;HPM_P1;HPM_P2
2021/08/13 06:56:28;;;;;;;13.65;10.05;;;;;;;;;;10509658;28;20048;-87
2021/08/13 07:01:31;;;;;;;10.32;8.35;;;;;;;;;;10495332;28;20546;-85
2021/08/13 07:06:32;;;;;;;10.32;8.20;;;;;;;;;;10477374;28;20100;-83
2021/08/13 07:11:33;;;;;;;11.05;8.55;;;;;;;;;;10481748;28;20094;-82
2021/08/13 07:16:34;;;;;;;10.63;9.15;;;;;;;;;;10478859;28;20063;-83
2021/08/13 07:21:35;;;;;;;9.75;8.35;;;;;;;;;;10476362;28;20032;-81
2021/08/13 07:26:36;;;;;;;10.93;9.00;;;;;;;;;;10473756;28;20025;-80
2021/08/13 07:31:37;;;;;;;13.05;10.20;;;;;;;;;;10474420;28;20046;-81
2021/08/13 07:36:38;;;;;;;12.93;10.52;;;;;;;;;;10476450;28;20545;-80
2021/08/13 07:41:39;;;;;;;13.18;11.05;;;;;;;;;;10571550;23;20056;-81
2021/08/13 07:46:40;;;;;;;14.45;11.30;;;;;;;;;;10533798;28;20021;-82
2021/08/13 07:51:41;;;;;;;15.13;11.98;;;;;;;;;;10535833;28;20038;-84
2021/08/13 07:56:42;;;;;;;14.98;11.18;;;;;;;;;;10547089;28;20451;-84
2021/08/13 08:01:43;;;;;;;15.35;11.20;;;;;;;;;;10545134;28;20033;-84
2021/08/13 08:06:58;;;;;;;13.35;11.00;;;;;;;;;;10546965;28;20020;-85
2021/08/13 08:12:00;;;;;;;14.15;10.48;;;;;;;;;;10564886;28;20035;-86
2021/08/13 08:17:01;;;;;;;17.80;12.20;;;;;;;;;;10547466;28;20135;-85
2021/08/13 08:22:02;;;;;;;20.45;12.77;;;;;;;;;;10563575;28;20027;-85
2021/08/13 08:27:04;;;;;;;19.65;13.10;;;;;;;;;;10565290;28;20020;-85
2021/08/13 08:32:05;;;;;;;17.60;12.48;;;;;;;;;;10544575;28;20060;-84
2021/08/13 08:37:11;;;;;;;21.08;15.65;;;;;;;;;;10535572;28;20058;-83
2021/08/13 08:47:32;;;;;;;18.40;14.77;;;;;;;;;;10557011;28;20032;-83
2021/08/13 08:52:33;;;;;;;18.95;12.82;;;;;;;;;;10539040;28;20050;-85
2021/08/13 08:57:39;;;;;;;16.83;11.93;;;;;;;;;;10541327;28;20074;-86
2021/08/13 09:02:43;;;;;;;17.55;15.05;;;;;;;;;;10543009;28;20126;-86
2021/08/13 09:07:44;;;;;;;15.48;12.63;;;;;;;;;;10554453;28;20087;-85
2021/08/13 09:12:45;;;;;;;20.73;15.30;;;;;;;;;;10558946;28;20054;-86
2021/08/13 09:17:46;;;;;;;17.92;15.82;;;;;;;;;;10544378;28;20063;-84
2021/08/13 09:22:48;;;;;;;19.27;15.93;;;;;;;;;;10538087;28;20020;-85
2021/08/13 09:28:15;;;;;;;24.52;18.05;;;;;;;;;;10539364;28;20046;-84
2021/08/13 09:33:19;;;;;;;20.05;15.70;;;;;;;;;;10535028;28;20024;-86
2021/08/13 09:38:20;;;;;;;22.20;16.17;;;;;;;;;;10538779;28;20035;-85
2021/08/13 09:43:21;;;;;;;19.58;15.00;;;;;;;;;;10543807;28;20028;-85
2021/08/13 09:48:25;;;;;;;20.98;16.13;;;;;;;;;;10538567;28;20391;-85
2021/08/13 09:53:26;;;;;;;20.05;15.18;;;;;;;;;;10538177;28;20087;-84
2021/08/13 09:58:32;;;;;;;21.17;15.88;;;;;;;;;;10536532;28;20391;-85
2021/08/13 10:04:01;;;;;;;18.42;13.95;;;;;;;;;;10552873;28;20048;-85
2021/08/13 10:09:28;;;;;;;18.10;13.30;;;;;;;;;;10555797;28;20033;-84
2021/08/13 10:14:30;;;;;;;17.20;12.63;;;;;;;;;;10516652;28;20040;-82
2021/08/13 10:19:31;;;;;;;16.17;11.85;;;;;;;;;;10540892;28;20034;-84
2021/08/13 10:24:32;;;;;;;15.20;12.57;;;;;;;;;;10533025;28;20067;-86
2021/08/13 10:29:34;;;;;;;15.65;10.88;;;;;;;;;;10476810;28;20043;-85
2021/08/13 10:34:35;;;;;;;11.30;7.50;;;;;;;;;;10549068;28;20035;-85
2021/08/13 10:39:41;;;;;;;9.55;8.30;;;;;;;;;;10540700;28;20103;-85
2021/08/13 10:45:08;;;;;;;7.93;6.55;;;;;;;;;;10540008;28;20066;-84
2021/08/13 10:50:10;;;;;;;7.53;5.80;;;;;;;;;;10548530;28;20051;-82
2021/08/13 10:55:31;;;;;;;9.65;6.80;;;;;;;;;;10556557;28;20038;-82
2021/08/13 11:00:51;;;;;;;10.18;7.28;;;;;;;;;;10555530;28;20032;-83
2021/08/13 11:06:00;;;;;;;8.07;6.20;;;;;;;;;;10551178;28;20053;-85
2021/08/13 11:11:12;;;;;;;8.95;5.22;;;;;;;;;;10549083;28;20024;-83
2021/08/13 11:16:25;;;;;;;33.53;25.30;;;;;;;;;;10564450;28;20099;-83
2021/08/13 11:21:36;;;;;;;5.47;3.80;;;;;;;;;;10543844;28;20040;-83
2021/08/13 11:26:58;;;;;;;7.57;4.25;;;;;;;;;;10544956;28;20521;-83
2021/08/13 11:32:00;;;;;;;5.38;4.03;;;;;;;;;;10542480;28;20073;-84
2021/08/13 11:37:02;;;;;;;5.43;4.32;;;;;;;;;;10543490;28;20024;-83
2021/08/13 11:42:08;;;;;;;10.02;7.30;;;;;;;;;;10546962;28;20395;-85
2021/08/13 11:47:15;;;;;;;6.55;3.72;;;;;;;;;;10531435;28;20044;-87
2021/08/13 11:52:23;;;;;;;5.82;3.50;;;;;;;;;;10571544;28;20055;-85
2021/08/13 11:57:26;;;;;;;5.97;3.67;;;;;;;;;;10531806;28;20032;-84
2021/08/13 12:02:42;;;;;;;4.07;2.85;;;;;;;;;;10546552;28;20057;-86
2021/08/13 12:07:59;;;;;;;3.47;2.70;;;;;;;;;;10566114;28;20017;-86
2021/08/13 12:13:25;;;;;;;5.25;3.10;;;;;;;;;;10542348;28;20032;-84
2021/08/13 12:18:37;;;;;;;4.03;2.78;;;;;;;;;;10543971;28;20054;-85
2021/08/13 12:23:55;;;;;;;5.40;3.33;;;;;;;;;;10542397;28;20054;-85
2021/08/13 12:29:02;;;;;;;3.97;2.42;;;;;;;;;;10517807;28;20035;-86
2021/08/13 12:34:45;;;;;;;5.03;2.53;;;;;;;;;;10550367;28;20039;-86
2021/08/13 12:40:51;;;;;;;4.53;2.30;;;;;;;;;;10358524;28;20014;-86
2021/08/13 12:46:14;;;;;;;3.65;2.72;;;;;;;;;;10333154;28;20023;-86
2021/08/13 12:51:26;;;;;;;6.15;3.85;;;;;;;;;;10543028;28;20046;-86
2021/08/13 12:56:27;;;;;;;6.13;4.50;;;;;;;;;;10540197;28;20032;-85
2021/08/13 13:01:29;;;;;;;4.35;2.83;;;;;;;;;;10555204;28;20039;-85
2021/08/13 13:18:06;;;;;;;6.10;4.50;;;;;;;;;;10564386;28;20028;-83
2021/08/13 13:23:08;;;;;;;5.07;3.85;;;;;;;;;;10537937;28;20020;-85
2021/08/13 13:28:10;;;;;;;3.83;2.83;;;;;;;;;;10542686;28;20020;-85
2021/08/13 13:33:12;;;;;;;4.72;3.20;;;;;;;;;;10542587;28;20476;-83
2021/08/13 13:38:13;;;;;;;3.58;3.05;;;;;;;;;;10537595;28;20063;-86
2021/08/13 13:43:14;;;;;;;3.55;2.80;;;;;;;;;;10535548;28;20506;-83
2021/08/13 13:48:15;;;;;;;9.15;6.47;;;;;;;;;;10548454;28;20056;-85
2021/08/13 13:53:17;;;;;;;3.40;3.05;;;;;;;;;;10541621;28;20047;-83
2021/08/13 13:58:18;;;;;;;4.60;3.67;;;;;;;;;;10534943;28;20080;-84
2021/08/13 14:03:19;;;;;;;7.18;3.63;;;;;;;;;;10526991;28;20035;-85
2021/08/13 14:08:20;;;;;;;4.82;3.63;;;;;;;;;;10529042;28;20034;-83
2021/08/13 14:13:27;;;;;;;3.95;3.08;;;;;;;;;;10532186;28;20028;-83
2021/08/13 14:18:28;;;;;;;5.95;3.58;;;;;;;;;;10538032;28;20024;-84
2021/08/13 14:23:29;;;;;;;4.10;3.63;;;;;;;;;;10537264;28;20024;-83
2021/08/13 14:28:30;;;;;;;5.22;3.50;;;;;;;;;;10538463;28;20073;-83
2021/08/13 14:33:31;;;;;;;5.28;4.28;;;;;;;;;;10545015;28;20032;-84
2021/08/13 14:38:33;;;;;;;6.95;5.13;;;;;;;;;;10554538;28;20028;-83
2021/08/13 14:43:34;;;;;;;5.78;3.92;;;;;;;;;;10551950;28;20161;-84
2021/08/13 14:48:35;;;;;;;6.75;5.20;;;;;;;;;;10550615;28;20101;-83
2021/08/13 14:53:36;;;;;;;6.47;4.50;;;;;;;;;;10567101;28;20047;-83
2021/08/13 14:58:37;;;;;;;9.95;6.68;;;;;;;;;;10551593;28;20091;-83
2021/08/13 15:03:41;;;;;;;8.32;5.40;;;;;;;;;;10557322;28;20032;-87
2021/08/13 15:08:42;;;;;;;9.38;7.65;;;;;;;;;;10555916;28;20028;-84
2021/08/13 15:13:44;;;;;;;8.48;5.88;;;;;;;;;;10547892;28;20012;-85
2021/08/13 15:18:51;;;;;;;8.65;5.78;;;;;;;;;;10542518;28;20371;-86
2021/08/13 15:23:54;;;;;;;10.82;6.85;;;;;;;;;;10536488;28;20028;-87
2021/08/13 15:28:55;;;;;;;10.18;6.72;;;;;;;;;;10534330;28;20020;-87
2021/08/13 15:33:56;;;;;;;8.20;5.68;;;;;;;;;;10537875;28;20028;-86
2021/08/13 15:38:57;;;;;;;9.52;7.40;;;;;;;;;;10533782;28;20024;-86
2021/08/13 15:43:58;;;;;;;9.90;6.03;;;;;;;;;;10534119;28;20042;-87
2021/08/13 15:48:59;;;;;;;8.10;4.95;;;;;;;;;;10533148;28;20036;-87
2021/08/13 15:54:00;;;;;;;9.98;6.10;;;;;;;;;;10544370;28;20452;-85
2021/08/13 15:59:01;;;;;;;10.25;6.22;;;;;;;;;;10541064;28;20035;-85
2021/08/13 16:04:02;;;;;;;7.15;5.18;;;;;;;;;;10544365;28;20452;-86
2021/08/13 16:09:03;;;;;;;7.78;5.20;;;;;;;;;;10547039;28;20158;-87
2021/08/13 16:14:05;;;;;;;9.13;6.43;;;;;;;;;;10541116;28;20020;-87
2021/08/13 16:19:06;;;;;;;9.48;6.88;;;;;;;;;;10556074;28;20101;-84
2021/08/13 16:24:07;;;;;;;9.80;6.35;;;;;;;;;;10549926;28;20083;-83
2021/08/13 16:29:08;;;;;;;8.52;6.40;;;;;;;;;;10545961;28;20059;-86
2021/08/13 16:34:09;;;;;;;9.48;6.50;;;;;;;;;;10548160;28;20063;-86
2021/08/13 16:39:10;;;;;;;8.48;5.88;;;;;;;;;;10546915;28;20096;-86
2021/08/13 16:44:20;;;;;;;9.75;6.60;;;;;;;;;;10540184;28;20376;-86
2021/08/13 16:50:12;;;;;;;;;;;;;;;;;;;;;
2021/08/13 16:55:04;;;;;;;8.75;5.80;;;;;;;;;;10553507;28;20059;-85
2021/08/13 17:00:08;;;;;;;7.47;5.55;;;;;;;;;;10539344;28;20368;-86
2021/08/13 17:05:09;;;;;;;8.18;5.85;;;;;;;;;;10538153;28;20019;-86
2021/08/13 17:10:10;;;;;;;10.77;5.82;;;;;;;;;;10539071;28;20023;-86
2021/08/13 17:15:11;;;;;;;11.63;5.72;;;;;;;;;;10538816;28;20028;-85
2021/08/13 17:20:13;;;;;;;6.97;4.65;;;;;;;;;;10541895;28;20020;-86
2021/08/13 17:25:14;;;;;;;6.63;4.20;;;;;;;;;;10541663;28;20047;-86
2021/08/13 17:30:15;;;;;;;6.60;4.03;;;;;;;;;;10540543;28;20084;-85
2021/08/13 17:35:16;;;;;;;7.93;3.85;;;;;;;;;;10538495;28;20027;-86
2021/08/13 17:40:17;;;;;;;7.30;3.70;;;;;;;;;;10561299;28;20028;-86
2021/08/13 17:45:18;;;;;;;5.40;3.70;;;;;;;;;;10541986;28;20020;-87
2021/08/13 17:50:19;;;;;;;6.45;3.53;;;;;;;;;;10542223;28;20457;-86
2021/08/13 17:55:20;;;;;;;8.13;3.40;;;;;;;;;;10539226;28;20081;-85
2021/08/13 18:00:21;;;;;;;7.57;4.05;;;;;;;;;;10537156;28;20050;-86
2021/08/13 18:05:22;;;;;;;5.63;3.38;;;;;;;;;;10533395;28;20115;-87
2021/08/13 18:10:24;;;;;;;5.75;3.20;;;;;;;;;;10540971;28;20021;-87
2021/08/13 18:15:25;;;;;;;4.97;3.08;;;;;;;;;;10541780;28;20039;-86
2021/08/13 18:20:26;;;;;;;5.82;3.00;;;;;;;;;;10542592;28;20028;-87
2021/08/13 18:25:40;;;;;;;6.35;3.20;;;;;;;;;;10534676;28;20020;-86
2021/08/13 18:30:41;;;;;;;5.85;2.60;;;;;;;;;;10543128;28;20032;-86
2021/08/13 18:35:42;;;;;;;6.32;3.40;;;;;;;;;;10543288;28;20088;-86
2021/08/13 18:40:43;;;;;;;5.95;3.28;;;;;;;;;;10538145;28;20502;-89
2021/08/13 18:45:47;;;;;;;7.63;3.22;;;;;;;;;;10528515;28;20055;-89
2021/08/13 18:50:48;;;;;;;6.60;2.70;;;;;;;;;;10529644;28;20039;-89
2021/08/13 18:55:49;;;;;;;4.85;3.08;;;;;;;;;;10532544;28;20030;-89
2021/08/13 19:00:50;;;;;;;5.00;2.88;;;;;;;;;;10544125;28;20107;-90
2021/08/13 19:05:55;;;;;;;5.70;3.22;;;;;;;;;;10542396;28;20020;-88
2021/08/13 19:10:56;;;;;;;5.45;2.97;;;;;;;;;;10539319;28;20028;-90
2021/08/13 19:15:57;;;;;;;5.75;2.85;;;;;;;;;;10548111;28;20020;-89
2021/08/13 19:20:58;;;;;;;5.03;2.90;;;;;;;;;;10563147;28;20020;-88
2021/08/13 19:26:00;;;;;;;5.13;3.10;;;;;;;;;;10560847;28;20024;-89
2021/08/13 19:31:01;;;;;;;6.68;3.03;;;;;;;;;;10563235;28;20020;-89
2021/08/13 19:36:02;;;;;;;5.45;2.63;;;;;;;;;;10566338;28;20036;-90
2021/08/13 19:41:03;;;;;;;4.75;2.70;;;;;;;;;;10561104;28;20036;-88
2021/08/13 19:46:04;;;;;;;4.55;2.67;;;;;;;;;;10536477;28;20039;-88
2021/08/13 19:51:05;;;;;;;5.65;3.10;;;;;;;;;;10539505;28;20028;-88
2021/08/13 19:56:06;;;;;;;4.45;2.72;;;;;;;;;;10565141;28;20028;-89
2021/08/13 20:01:07;;;;;;;4.95;3.00;;;;;;;;;;10551925;28;20038;-88
2021/08/13 20:06:08;;;;;;;4.35;2.85;;;;;;;;;;10531376;28;20024;-89
2021/08/13 20:11:09;;;;;;;5.65;2.80;;;;;;;;;;10529559;28;20398;-89
2021/08/13 20:16:19;;;;;;;6.03;3.30;;;;;;;;;;10529279;28;20111;-88
2021/08/13 20:21:20;;;;;;;5.22;3.17;;;;;;;;;;10529413;28;20092;-88
2021/08/13 20:26:21;;;;;;;5.13;3.25;;;;;;;;;;10529491;28;20178;-88
2021/08/13 20:31:22;;;;;;;5.95;3.05;;;;;;;;;;10530038;28;20029;-88
2021/08/13 20:36:23;;;;;;;6.13;3.38;;;;;;;;;;10531512;28;20024;-88
2021/08/13 20:41:24;;;;;;;5.85;3.45;;;;;;;;;;10531628;28;20081;-88
2021/08/13 20:46:25;;;;;;;4.15;2.92;;;;;;;;;;10532842;28;20058;-88
2021/08/13 20:51:26;;;;;;;6.20;3.50;;;;;;;;;;10530959;28;20104;-88
2021/08/13 20:56:28;;;;;;;6.22;3.42;;;;;;;;;;10540337;28;20566;-88
2021/08/13 21:01:29;;;;;;;5.82;3.83;;;;;;;;;;10571514;28;20025;-88
2021/08/13 21:06:30;;;;;;;5.07;3.35;;;;;;;;;;10563876;28;20035;-88
2021/08/13 21:11:31;;;;;;;4.72;3.50;;;;;;;;;;10573668;28;20038;-87
2021/08/13 21:16:32;;;;;;;6.05;4.28;;;;;;;;;;10573196;28;20073;-87
2021/08/13 21:21:33;;;;;;;5.45;3.55;;;;;;;;;;10557498;28;20054;-87
2021/08/13 21:26:34;;;;;;;6.22;3.47;;;;;;;;;;10536284;28;20020;-86
2021/08/13 21:31:36;;;;;;;8.18;4.35;;;;;;;;;;10527706;28;20391;-86
2021/08/13 21:36:37;;;;;;;6.63;3.67;;;;;;;;;;10531133;28;20040;-89
2021/08/13 21:41:38;;;;;;;6.03;3.75;;;;;;;;;;10527763;28;20020;-86
2021/08/13 21:46:39;;;;;;;6.53;4.47;;;;;;;;;;10531793;28;20138;-86
2021/08/13 21:51:42;;;;;;;5.82;3.75;;;;;;;;;;10531445;28;20135;-86
2021/08/13 21:56:42;;;;;;;8.23;4.30;;;;;;;;;;10530090;28;20114;-86
2021/08/13 22:01:44;;;;;;;5.78;4.00;;;;;;;;;;10529905;28;20066;-86
2021/08/13 22:06:49;;;;;;;5.40;3.95;;;;;;;;;;10530229;28;20024;-85
2021/08/13 22:11:51;;;;;;;5.30;3.70;;;;;;;;;;10531000;28;20044;-86
2021/08/13 22:16:52;;;;;;;5.97;4.00;;;;;;;;;;10530179;28;20024;-86
2021/08/13 22:21:53;;;;;;;6.65;4.50;;;;;;;;;;10530896;28;20028;-85
2021/08/13 22:26:54;;;;;;;5.10;3.65;;;;;;;;;;10530520;28;20022;-86
2021/08/13 22:31:55;;;;;;;7.00;3.85;;;;;;;;;;10531800;28;20024;-86
2021/08/13 22:36:56;;;;;;;5.40;3.78;;;;;;;;;;10537625;28;20035;-86
2021/08/13 22:41:57;;;;;;;4.30;3.13;;;;;;;;;;10538180;28;20047;-85
2021/08/13 22:46:57;;;;;;;5.03;3.80;;;;;;;;;;10553937;28;20024;-87
2021/08/13 22:51:58;;;;;;;4.63;3.38;;;;;;;;;;10558004;28;20537;-86
2021/08/13 22:56:59;;;;;;;6.57;3.67;;;;;;;;;;10533970;28;20060;-86
2021/08/13 23:02:04;;;;;;;6.63;4.05;;;;;;;;;;10533547;28;20032;-85
2021/08/13 23:07:05;;;;;;;6.70;3.85;;;;;;;;;;10533926;28;20031;-85
2021/08/13 23:12:06;;;;;;;4.78;3.60;;;;;;;;;;10531738;28;20040;-85
2021/08/13 23:17:08;;;;;;;5.75;3.55;;;;;;;;;;10531367;28;20023;-88
2021/08/13 23:22:10;;;;;;;6.95;3.55;;;;;;;;;;10532013;28;20016;-88
2021/08/13 23:27:11;;;;;;;5.45;3.67;;;;;;;;;;10534052;28;20031;-86
2021/08/13 23:32:12;;;;;;;5.45;3.40;;;;;;;;;;10534805;28;20056;-86
2021/08/13 23:37:13;;;;;;;5.47;3.90;;;;;;;;;;10535106;28;20111;-86
2021/08/13 23:42:14;;;;;;;4.72;3.50;;;;;;;;;;10534294;28;20484;-86
2021/08/13 23:47:15;;;;;;;6.30;3.85;;;;;;;;;;10532344;28;20028;-86
2021/08/13 23:52:16;;;;;;;5.13;3.53;;;;;;;;;;10528498;28;20043;-86
2021/08/13 23:57:18;;;;;;;5.22;3.70;;;;;;;;;;10529347;28;20074;-86
